createdAt,value
2022-08-05T00:01:00.926Z,51.8270
2022-08-05T00:02:07.963Z,52.0570
2022-08-05T00:03:00.680Z,51.8560
2022-08-05T00:04:02.911Z,51.5140
2022-08-05T00:05:05.795Z,51.3950
2022-08-05T00:06:27.831Z,51.5970
2022-08-05T00:07:26.995Z,51.4090
2022-08-05T00:08:32.761Z,51.6390
2022-08-05T00:09:15.666Z,51.7130
2022-08-05T00:10:16.132Z,52.0430
2022-08-05T00:11:20.794Z,51.8320
2022-08-05T00:12:20.543Z,51.5730
2022-08-05T00:13:38.516Z,51.4910
2022-08-05T00:14:22.830Z,51.4210
2022-08-05T00:15:56.050Z,51.8770
2022-08-05T00:16:36.377Z,51.6570
2022-08-05T00:17:27.423Z,51.7290
2022-08-05T00:18:29.680Z,51.7650
2022-08-05T00:19:33.627Z,51.7840
2022-08-05T00:20:34.139Z,51.6270
2022-08-05T00:21:36.411Z,51.3780
2022-08-05T00:22:38.671Z,51.1410
2022-08-05T00:23:45.716Z,51.3010
2022-08-05T00:24:43.274Z,51.1960
2022-08-05T00:25:46.352Z,50.9890
2022-08-05T00:26:51.717Z,50.8630
2022-08-05T00:27:47.776Z,50.7910
2022-08-05T00:28:50.003Z,50.6750
2022-08-05T00:29:52.315Z,50.8310
2022-08-05T00:30:54.547Z,50.7330
2022-08-05T00:32:12.870Z,50.5930
2022-08-05T00:32:59.097Z,50.5930
2022-08-05T00:34:53.308Z,50.2960
2022-08-05T00:35:06.086Z,50.1870
2022-08-05T00:36:16.028Z,50.1850
2022-08-05T00:37:09.901Z,50.0920
2022-08-05T00:38:09.551Z,49.7780
2022-08-05T00:39:13.456Z,49.6930
2022-08-05T00:40:10.358Z,49.4710
2022-08-05T00:41:12.568Z,49.2410
2022-08-05T00:42:32.227Z,49.3570
2022-08-05T00:43:15.371Z,49.1350
2022-08-05T00:44:17.056Z,49.1030
2022-08-05T00:45:28.327Z,49.1290
2022-08-05T00:46:36.922Z,49.1990
2022-08-05T00:47:25.710Z,49.2050
2022-08-05T00:47:56.763Z,49.1890
2022-08-05T00:48:34.377Z,49.0500
2022-08-05T00:49:51.506Z,49.2500
2022-08-05T00:50:38.821Z,49.4270
2022-08-05T00:51:51.992Z,49.6380
2022-08-05T00:52:45.387Z,49.8820
2022-08-05T00:54:02.792Z,49.9830
2022-08-05T00:54:47.823Z,49.9400
2022-08-05T00:55:50.106Z,50.0630
2022-08-05T00:56:52.340Z,49.9790
2022-08-05T00:57:58.356Z,50.4580
2022-08-05T00:58:54.709Z,50.6450
2022-08-05T00:59:56.978Z,50.6620
2022-08-05T01:00:59.300Z,50.6580
2022-08-05T01:02:01.378Z,50.5860
2022-08-05T01:03:03.595Z,50.5290
2022-08-05T01:04:11.814Z,50.2310
2022-08-05T01:05:10.136Z,50.2390
2022-08-05T01:06:14.070Z,50.2390
2022-08-05T01:07:23.284Z,50.0420
2022-08-05T01:08:40.218Z,49.8410
2022-08-05T01:09:14.814Z,49.9260
2022-08-05T01:10:17.075Z,49.9460
2022-08-05T01:11:22.726Z,49.8840
2022-08-05T01:12:21.499Z,50.0800
2022-08-05T01:13:27.468Z,50.1270
2022-08-05T01:14:28.489Z,50.3200
2022-08-05T01:15:36.225Z,50.2420
2022-08-05T01:16:30.374Z,50.1730
2022-08-05T01:17:32.521Z,50.3830
2022-08-05T01:18:32.560Z,50.4760
2022-08-05T01:19:56.443Z,50.2950
2022-08-05T01:20:34.778Z,50.5040
2022-08-05T01:21:39.149Z,50.6510
2022-08-05T01:22:39.557Z,50.5170
2022-08-05T01:23:41.350Z,50.4820
2022-08-05T01:24:43.564Z,50.5360
2022-08-05T01:25:53.225Z,50.6220
2022-08-05T01:26:48.030Z,50.6900
2022-08-05T01:27:55.023Z,50.7950
2022-08-05T01:28:52.445Z,50.8130
2022-08-05T01:29:54.725Z,50.8160
2022-08-05T01:30:55.294Z,50.6840
2022-08-05T01:31:56.974Z,50.4760
2022-08-05T01:32:59.182Z,50.5160
2022-08-05T01:34:01.367Z,50.3370
2022-08-05T01:35:04.186Z,50.4210
2022-08-05T01:36:05.845Z,50.4130
2022-08-05T01:37:08.117Z,50.3370
2022-08-05T01:38:10.268Z,50.4130
2022-08-05T01:39:13.184Z,50.2610
2022-08-05T01:40:14.619Z,50.0870
2022-08-05T01:41:16.813Z,50.1510
2022-08-05T01:42:19.038Z,50.2780
2022-08-05T01:43:22.089Z,50.4900
2022-08-05T01:44:23.383Z,50.5340
2022-08-05T01:44:45.726Z,50.4410
2022-08-05T01:45:47.022Z,50.2390
2022-08-05T01:46:49.243Z,50.1820
2022-08-05T01:47:54.501Z,50.3440
2022-08-05T01:48:51.590Z,50.3380
2022-08-05T01:50:01.336Z,50.3540
2022-08-05T01:50:56.116Z,50.4120
2022-08-05T01:51:58.861Z,50.6040
2022-08-05T01:53:00.671Z,50.6120
2022-08-05T01:54:02.894Z,50.6660
2022-08-05T01:55:05.603Z,50.7630
2022-08-05T01:56:09.059Z,50.5750
2022-08-05T01:58:15.641Z,50.2020
2022-08-05T01:58:29.946Z,50.3830
2022-08-05T01:59:11.849Z,50.1740
2022-08-05T02:00:14.045Z,50.0510
2022-08-05T02:01:16.233Z,49.9770
2022-08-05T02:02:18.425Z,50.1230
2022-08-05T02:03:28.954Z,50.1330
2022-08-05T02:04:22.751Z,50.5050
2022-08-05T02:05:24.942Z,50.5220
2022-08-05T02:06:37.930Z,50.5290
2022-08-05T02:07:30.417Z,50.5600
2022-08-05T02:08:31.757Z,50.3420
2022-08-05T02:09:33.691Z,50.1420
2022-08-05T02:10:35.832Z,50.0680
2022-08-05T02:11:42.190Z,49.9530
2022-08-05T02:12:40.169Z,49.9470
2022-08-05T02:13:48.670Z,49.9150
2022-08-05T02:14:44.539Z,49.9740
2022-08-05T02:15:46.724Z,50.0310
2022-08-05T02:16:53.167Z,50.0320
2022-08-05T02:18:30.687Z,50.0630
2022-08-05T02:18:51.157Z,50.1390
2022-08-05T02:19:53.358Z,50.0890
2022-08-05T02:20:55.572Z,50.0340
2022-08-05T02:21:57.795Z,50.1200
2022-08-05T02:22:57.868Z,50.0500
2022-08-05T02:24:00.155Z,49.9640
2022-08-05T02:25:02.472Z,49.9230
2022-08-05T02:26:04.640Z,49.8650
2022-08-05T02:27:09.089Z,49.7590
2022-08-05T02:28:09.186Z,49.7520
2022-08-05T02:29:21.374Z,49.6370
2022-08-05T02:30:13.639Z,49.8120
2022-08-05T02:31:15.992Z,49.8310
2022-08-05T02:32:23.656Z,49.7730
2022-08-05T02:33:24.681Z,49.5730
2022-08-05T02:34:20.388Z,49.7500
2022-08-05T02:35:28.270Z,49.4580
2022-08-05T02:36:24.785Z,49.5220
2022-08-05T02:37:27.315Z,49.5000
2022-08-05T02:38:35.155Z,49.5730
2022-08-05T02:39:31.622Z,49.6370
2022-08-05T02:40:33.728Z,49.6450
2022-08-05T02:41:43.071Z,49.5180
2022-08-05T02:42:38.208Z,49.5120
2022-08-05T02:44:05.966Z,49.3970
2022-08-05T02:44:42.584Z,49.5510
2022-08-05T02:45:52.977Z,49.6020
2022-08-05T02:46:58.554Z,49.6270
2022-08-05T02:48:12.152Z,49.6660
2022-08-05T02:48:49.267Z,49.5390
2022-08-05T02:49:51.566Z,49.6270
2022-08-05T02:50:53.785Z,49.6170
2022-08-05T02:52:03.703Z,49.5510
2022-08-05T02:52:58.258Z,49.6460
2022-08-05T02:54:04.173Z,49.6250
2022-08-05T02:55:05.220Z,49.5980
2022-08-05T02:56:02.738Z,49.6110
2022-08-05T02:57:05.138Z,49.6370
2022-08-05T02:58:11.235Z,49.6750
2022-08-05T02:59:07.128Z,49.6970
2022-08-05T03:00:09.350Z,49.6890
2022-08-05T03:01:11.535Z,49.6890
2022-08-05T03:02:11.564Z,49.5180
2022-08-05T03:03:13.742Z,49.4710
2022-08-05T03:04:14.314Z,49.4630
2022-08-05T03:05:16.033Z,49.5330
2022-08-05T03:06:53.821Z,49.5120
2022-08-05T03:07:40.578Z,49.6170
2022-08-05T03:08:29.841Z,49.6340
2022-08-05T03:09:36.185Z,49.6620
2022-08-05T03:10:25.292Z,49.6250
2022-08-05T03:11:56.702Z,49.6720
2022-08-05T03:12:27.474Z,49.6620
2022-08-05T03:13:50.987Z,49.6400
2022-08-05T03:14:31.928Z,49.7030
2022-08-05T03:15:34.164Z,49.7090
2022-08-05T03:16:36.320Z,49.6680
2022-08-05T03:17:41.860Z,49.7300
2022-08-05T03:18:42.176Z,49.7610
2022-08-05T03:19:45.453Z,49.7610
2022-08-05T03:20:48.664Z,49.7490
2022-08-05T03:21:49.683Z,49.8060
2022-08-05T03:22:50.094Z,49.8060
2022-08-05T03:23:50.015Z,49.8120
2022-08-05T03:24:52.359Z,49.8310
2022-08-05T03:26:04.449Z,49.8700
2022-08-05T03:26:56.716Z,49.9330
2022-08-05T03:28:00.518Z,49.9070
2022-08-05T03:29:01.241Z,49.9390
2022-08-05T03:30:08.247Z,49.9330
2022-08-05T03:31:05.831Z,49.9460
2022-08-05T03:32:05.932Z,49.9210
2022-08-05T03:33:08.207Z,49.9850
2022-08-05T03:34:10.482Z,49.9910
2022-08-05T03:35:12.845Z,49.9520
2022-08-05T03:36:15.047Z,49.9850
2022-08-05T03:37:17.255Z,49.9520
2022-08-05T03:38:23.989Z,49.9620
2022-08-05T03:39:27.271Z,50.0490
2022-08-05T03:40:31.180Z,50.0800
2022-08-05T03:41:24.006Z,50.0550
2022-08-05T03:42:27.087Z,50.0220
2022-08-05T03:44:08.667Z,50.0730
2022-08-05T03:44:30.639Z,50.0730
2022-08-05T03:45:32.862Z,50.0340
2022-08-05T03:46:35.097Z,50.0670
2022-08-05T03:47:41.275Z,50.0420
2022-08-05T03:48:39.497Z,50.0420
2022-08-05T03:49:51.669Z,50.0340
2022-08-05T03:50:41.788Z,50.0610
2022-08-05T03:52:39.424Z,50.0730
2022-08-05T03:54:58.838Z,50.0340
2022-08-05T03:55:53.870Z,50.1470
2022-08-05T03:56:06.119Z,50.1410
2022-08-05T03:56:50.105Z,50.1470
2022-08-05T03:57:50.839Z,50.1350
2022-08-05T03:58:53.048Z,50.1490
2022-08-05T03:59:55.724Z,50.1350
2022-08-05T04:00:57.484Z,50.1720
2022-08-05T04:01:59.694Z,50.2050
2022-08-05T04:03:01.830Z,50.2110
2022-08-05T04:04:09.723Z,50.2480
2022-08-05T04:05:06.287Z,50.2770
2022-08-05T04:06:08.766Z,50.2980
2022-08-05T04:07:10.794Z,50.2900
2022-08-05T04:07:53.033Z,50.2690
2022-08-05T04:08:51.634Z,50.3180
2022-08-05T04:09:54.023Z,50.2930
2022-08-05T04:10:56.062Z,50.2750
2022-08-05T04:11:58.234Z,50.2810
2022-08-05T04:13:00.423Z,50.2610
2022-08-05T04:14:02.541Z,50.2930
2022-08-05T04:15:04.767Z,50.2870
2022-08-05T04:16:06.981Z,50.2750
2022-08-05T04:17:09.178Z,50.2590
2022-08-05T04:18:22.499Z,50.2130
2022-08-05T04:19:13.554Z,50.2480
2022-08-05T04:20:15.762Z,50.2550
2022-08-05T04:22:04.951Z,50.2480
2022-08-05T04:22:20.569Z,50.2980
2022-08-05T04:23:20.208Z,50.3160
2022-08-05T04:24:22.862Z,50.3610
2022-08-05T04:25:57.591Z,50.3670
2022-08-05T04:26:26.904Z,50.3630
2022-08-05T04:27:41.916Z,50.3980
2022-08-05T04:28:31.903Z,50.3860
2022-08-05T04:29:33.532Z,50.3530
2022-08-05T04:30:35.779Z,50.3920
2022-08-05T04:31:38.741Z,50.3920
2022-08-05T04:32:40.269Z,50.4460
2022-08-05T04:34:18.609Z,50.4440
2022-08-05T04:34:44.742Z,50.4580
2022-08-05T04:36:16.472Z,50.5010
2022-08-05T04:36:50.213Z,50.5550
2022-08-05T04:38:02.738Z,50.5430
2022-08-05T04:38:53.681Z,50.5620
2022-08-05T04:39:53.754Z,50.5490
2022-08-05T04:40:53.775Z,50.6850
2022-08-05T04:41:53.904Z,50.8190
2022-08-05T04:42:56.172Z,50.8110
2022-08-05T04:43:58.464Z,50.9530
2022-08-05T04:45:01.036Z,51.4960
2022-08-05T04:46:02.925Z,51.7010
2022-08-05T04:47:08.784Z,52.1830
2022-08-05T04:48:07.489Z,52.6770
2022-08-05T04:49:12.400Z,52.9150
2022-08-05T04:50:11.106Z,53.3950
2022-08-05T04:51:12.183Z,53.4770
2022-08-05T04:52:14.460Z,53.5960
2022-08-05T04:53:16.742Z,53.2620
2022-08-05T04:54:19.014Z,52.6400
2022-08-05T04:56:15.306Z,52.7480
2022-08-05T04:56:34.489Z,53.2360
2022-08-05T04:57:24.050Z,53.2150
2022-08-05T04:58:25.953Z,52.7530
2022-08-05T04:59:38.418Z,52.6360
2022-08-05T05:00:30.475Z,52.6070
2022-08-05T05:02:06.326Z,53.9800
2022-08-05T05:02:41.796Z,54.9200
2022-08-05T05:03:41.966Z,55.4080
2022-08-05T05:04:44.128Z,55.6000
2022-08-05T05:06:36.705Z,55.1120
2022-08-05T05:06:49.209Z,55.0020
2022-08-05T05:07:45.750Z,55.2160
2022-08-05T05:08:50.104Z,55.1430
2022-08-05T05:09:48.498Z,55.2670
2022-08-05T05:10:55.781Z,54.9170
2022-08-05T05:11:56.865Z,55.3450
2022-08-05T05:12:55.196Z,55.5550
2022-08-05T05:13:57.471Z,55.8530
2022-08-05T05:14:59.808Z,55.9990
2022-08-05T05:16:06.972Z,55.5810
2022-08-05T05:16:11.084Z,55.6290
2022-08-05T05:18:12.947Z,55.5530
2022-08-05T05:19:19.219Z,55.7170
2022-08-05T05:20:17.448Z,55.8490
2022-08-05T05:22:23.117Z,54.7680
2022-08-05T05:23:08.156Z,54.1730
2022-08-05T05:24:08.919Z,53.9000
2022-08-05T05:25:17.074Z,53.9710
2022-08-05T05:26:09.450Z,53.7790
2022-08-05T05:27:11.617Z,53.8160
2022-08-05T05:28:13.846Z,54.1230
2022-08-05T05:29:14.685Z,53.9640
2022-08-05T05:30:30.495Z,53.6470
2022-08-05T05:31:18.606Z,53.5470
2022-08-05T05:32:20.613Z,53.4950
2022-08-05T05:33:23.301Z,53.2670
2022-08-05T05:34:26.956Z,53.1080
2022-08-05T05:35:27.285Z,53.1100
2022-08-05T05:36:29.829Z,52.9980
2022-08-05T05:37:37.512Z,52.7820
2022-08-05T05:38:36.101Z,52.9030
2022-08-05T05:39:09.386Z,53.1170
2022-08-05T05:40:08.355Z,52.9730
2022-08-05T05:41:10.600Z,53.3850
2022-08-05T05:42:12.871Z,53.8240
2022-08-05T05:43:15.021Z,53.2510
2022-08-05T05:44:36.498Z,52.8110
2022-08-05T05:45:19.394Z,52.4760
2022-08-05T05:46:21.911Z,52.1570
2022-08-05T05:47:30.192Z,51.9340
2022-08-05T05:48:27.714Z,51.8150
2022-08-05T05:49:28.051Z,51.7090
2022-08-05T05:50:30.976Z,51.6020
2022-08-05T05:51:49.990Z,51.4960
2022-08-05T05:52:40.536Z,51.4630
2022-08-05T05:53:46.047Z,51.4320
2022-08-05T05:54:50.240Z,51.4000
2022-08-05T05:55:51.852Z,51.3170
2022-08-05T05:56:43.388Z,51.1240
2022-08-05T05:57:52.647Z,51.1170
2022-08-05T05:58:47.754Z,51.1820
2022-08-05T05:59:49.960Z,51.0800
2022-08-05T06:00:52.157Z,50.9940
2022-08-05T06:01:57.169Z,50.9530
2022-08-05T06:02:54.365Z,50.8880
2022-08-05T06:04:02.006Z,50.8910
2022-08-05T06:04:58.708Z,50.9050
2022-08-05T06:06:00.802Z,50.8660
2022-08-05T06:07:02.953Z,50.8310
2022-08-05T06:08:05.140Z,50.7730
2022-08-05T06:09:07.624Z,50.7280
2022-08-05T06:10:10.523Z,50.7380
2022-08-05T06:11:13.727Z,50.7260
2022-08-05T06:12:15.835Z,50.7800
2022-08-05T06:13:15.877Z,50.7380
2022-08-05T06:14:17.966Z,50.7190
2022-08-05T06:15:23.709Z,50.7550
2022-08-05T06:16:29.145Z,50.7550
2022-08-05T06:17:31.138Z,50.7860
2022-08-05T06:18:30.851Z,50.8190
2022-08-05T06:19:34.255Z,50.8000
2022-08-05T06:20:28.765Z,50.7920
2022-08-05T06:21:35.743Z,50.7010
2022-08-05T06:22:33.493Z,50.7320
2022-08-05T06:23:43.954Z,50.7440
2022-08-05T06:24:37.399Z,50.7320
2022-08-05T06:26:12.399Z,50.6910
2022-08-05T06:26:51.358Z,50.6970
2022-08-05T06:28:11.762Z,50.7070
2022-08-05T06:28:47.979Z,50.6660
2022-08-05T06:30:02.712Z,50.6680
2022-08-05T06:30:50.045Z,50.6720
2022-08-05T06:31:50.652Z,50.6370
2022-08-05T06:32:52.302Z,50.6140
2022-08-05T06:34:07.650Z,50.6330
2022-08-05T06:34:57.267Z,50.6330
2022-08-05T06:36:08.008Z,50.5900
2022-08-05T06:37:01.145Z,50.6370
2022-08-05T06:38:11.500Z,50.6310
2022-08-05T06:39:05.640Z,50.5920
2022-08-05T06:40:07.771Z,50.6390
2022-08-05T06:41:09.953Z,50.4930
2022-08-05T06:42:12.127Z,50.4970
2022-08-05T06:43:58.694Z,50.5090
2022-08-05T06:44:16.470Z,50.4870
2022-08-05T06:45:21.189Z,50.4820
2022-08-05T06:46:20.827Z,50.4640
2022-08-05T06:47:30.247Z,50.5260
2022-08-05T06:48:50.296Z,50.4160
2022-08-05T06:50:00.211Z,50.5400
2022-08-05T06:50:29.600Z,50.4700
2022-08-05T06:51:30.743Z,50.4800
2022-08-05T06:52:38.115Z,50.4760
2022-08-05T06:53:32.032Z,50.5400
2022-08-05T06:54:34.289Z,50.4450
2022-08-05T06:55:36.709Z,50.4510
2022-08-05T06:56:36.613Z,50.4760
2022-08-05T06:58:02.922Z,50.3590
2022-08-05T06:58:46.778Z,50.4270
2022-08-05T06:59:55.024Z,50.4060
2022-08-05T07:00:45.688Z,50.4410
2022-08-05T07:01:46.220Z,50.4200
2022-08-05T07:02:45.845Z,50.3750
2022-08-05T07:03:50.202Z,50.3850
2022-08-05T07:04:50.302Z,50.4170
2022-08-05T07:05:52.468Z,50.3430
2022-08-05T07:06:56.807Z,50.3430
2022-08-05T07:07:54.671Z,50.3490
2022-08-05T07:08:59.032Z,50.3140
2022-08-05T07:09:58.411Z,50.3010
2022-08-05T07:11:01.090Z,50.3880
2022-08-05T07:12:01.187Z,50.3050
2022-08-05T07:13:03.362Z,50.3850
2022-08-05T07:14:05.561Z,50.3280
2022-08-05T07:15:08.793Z,50.2830
2022-08-05T07:16:09.971Z,50.3010
2022-08-05T07:18:01.691Z,50.3080
2022-08-05T07:18:21.187Z,50.3940
2022-08-05T07:19:36.396Z,50.3300
2022-08-05T07:20:37.061Z,50.4160
2022-08-05T07:21:25.776Z,50.3130
2022-08-05T07:22:28.698Z,50.3940
2022-08-05T07:23:26.027Z,50.3420
2022-08-05T07:24:28.738Z,50.2660
2022-08-05T07:25:55.009Z,50.3050
2022-08-05T07:26:31.760Z,50.2310
2022-08-05T07:27:56.429Z,50.1940
2022-08-05T07:28:36.089Z,50.2190
2022-08-05T07:30:22.035Z,50.2440
2022-08-05T07:30:40.468Z,50.2770
2022-08-05T07:31:54.996Z,50.2730
2022-08-05T07:32:44.801Z,50.3280
2022-08-05T07:33:44.835Z,50.3780
2022-08-05T07:34:47.027Z,50.3300
2022-08-05T07:36:05.228Z,50.3710
2022-08-05T07:36:51.430Z,50.4170
2022-08-05T07:37:53.653Z,50.3820
2022-08-05T07:38:56.032Z,50.4000
2022-08-05T07:40:26.304Z,50.3690
2022-08-05T07:41:17.191Z,50.3940
2022-08-05T07:42:12.892Z,50.4390
2022-08-05T07:43:14.794Z,50.4000
2022-08-05T07:44:14.419Z,50.5060
2022-08-05T07:45:09.514Z,50.4420
2022-08-05T07:46:23.476Z,50.3940
2022-08-05T07:47:10.042Z,50.4420
2022-08-05T07:48:11.771Z,50.4230
2022-08-05T07:49:11.868Z,50.3820
2022-08-05T07:50:16.517Z,50.3640
2022-08-05T07:51:23.784Z,50.3570
2022-08-05T07:52:23.920Z,50.4390
2022-08-05T07:53:22.808Z,50.3820
2022-08-05T07:54:23.143Z,50.4000
2022-08-05T07:56:04.905Z,50.3430
2022-08-05T07:57:02.578Z,50.3570
2022-08-05T07:57:56.339Z,50.4040
2022-08-05T07:58:57.878Z,50.3690
2022-08-05T07:59:40.128Z,50.3820
2022-08-05T08:00:36.181Z,50.3240
2022-08-05T08:01:51.736Z,50.2810
2022-08-05T08:03:13.874Z,50.3310
2022-08-05T08:03:44.336Z,50.3510
2022-08-05T08:04:40.512Z,50.2870
2022-08-05T08:05:49.272Z,50.2750
2022-08-05T08:06:47.182Z,50.2730
2022-08-05T08:07:59.698Z,50.3240
2022-08-05T08:08:51.641Z,50.2730
2022-08-05T08:09:52.397Z,50.2290
2022-08-05T08:10:51.841Z,50.2110
2022-08-05T08:12:01.794Z,50.1370
2022-08-05T08:12:58.786Z,50.2540
2022-08-05T08:14:00.716Z,50.1720
2022-08-05T08:15:02.463Z,50.1720
2022-08-05T08:16:35.199Z,50.2540
2022-08-05T08:17:05.144Z,50.1720
2022-08-05T08:18:13.780Z,50.2600
2022-08-05T08:19:07.388Z,50.2030
2022-08-05T08:20:43.506Z,50.1550
2022-08-05T08:21:09.484Z,50.2050
2022-08-05T08:22:07.527Z,50.2090
2022-08-05T08:24:01.070Z,50.2050
2022-08-05T08:24:14.297Z,50.1900
2022-08-05T08:25:17.740Z,50.1180
2022-08-05T08:26:16.298Z,50.0610
2022-08-05T08:27:20.721Z,50.1470
2022-08-05T08:28:35.478Z,50.0610
2022-08-05T08:30:03.338Z,50.1080
2022-08-05T08:30:32.630Z,50.1080
2022-08-05T08:31:27.189Z,50.0890
2022-08-05T08:32:29.406Z,50.0150
2022-08-05T08:33:29.443Z,50.0090
2022-08-05T08:34:33.797Z,49.9640
2022-08-05T08:35:34.826Z,49.8630
2022-08-05T08:36:47.728Z,49.9450
2022-08-05T08:37:38.280Z,49.8630
2022-08-05T08:38:42.602Z,49.8880
2022-08-05T08:39:49.283Z,49.9580
2022-08-05T08:40:40.583Z,50.0150
2022-08-05T08:41:52.639Z,49.9970
2022-08-05T08:42:51.040Z,49.9040
2022-08-05T08:45:16.608Z,50.1410
2022-08-05T08:45:18.857Z,50.2480
2022-08-05T08:45:49.523Z,50.0690
2022-08-05T08:46:51.752Z,50.2480
2022-08-05T08:48:10.434Z,50.0280
2022-08-05T08:49:07.865Z,49.8690
2022-08-05T08:50:14.664Z,49.5240
2022-08-05T08:51:22.366Z,49.4520
2022-08-05T08:52:03.507Z,49.1860
2022-08-05T08:52:56.350Z,49.0900
2022-08-05T08:53:58.556Z,49.0780
2022-08-05T08:54:58.641Z,48.8970
2022-08-05T08:56:04.116Z,48.9410
2022-08-05T08:57:03.105Z,48.8840
2022-08-05T08:58:07.534Z,48.8140
2022-08-05T08:59:14.926Z,48.8280
2022-08-05T09:00:15.626Z,48.9100
2022-08-05T09:01:17.092Z,48.8590
2022-08-05T09:02:14.187Z,48.8490
2022-08-05T09:03:19.304Z,48.8080
2022-08-05T09:04:16.400Z,48.8890
2022-08-05T09:05:18.593Z,48.7890
2022-08-05T09:06:21.209Z,48.8920
2022-08-05T09:07:28.836Z,48.8400
2022-08-05T09:08:20.843Z,48.8280
2022-08-05T09:09:22.961Z,48.8240
2022-08-05T09:10:29.516Z,48.8180
2022-08-05T09:11:51.051Z,48.8020
2022-08-05T09:12:31.834Z,48.8360
2022-08-05T09:13:31.583Z,48.8810
2022-08-05T09:14:56.402Z,48.9390
2022-08-05T09:15:36.804Z,48.8810
2022-08-05T09:16:34.020Z,48.8180
2022-08-05T09:17:40.606Z,48.9610
2022-08-05T09:18:40.107Z,48.6810
2022-08-05T09:20:01.403Z,48.9570
2022-08-05T09:20:40.805Z,48.7910
2022-08-05T09:22:23.426Z,48.7650
2022-08-05T09:22:51.818Z,48.8000
2022-08-05T09:23:45.434Z,48.6970
2022-08-05T09:24:47.702Z,48.7260
2022-08-05T09:26:03.110Z,48.6180
2022-08-05T09:26:47.886Z,48.6560
2022-08-05T09:28:04.191Z,48.6810
2022-08-05T09:28:54.573Z,48.6400
2022-08-05T09:29:54.653Z,48.6500
2022-08-05T09:30:54.739Z,48.7260
2022-08-05T09:32:40.378Z,48.6870
2022-08-05T09:32:57.472Z,48.6930
2022-08-05T09:34:01.700Z,48.7020
2022-08-05T09:35:01.508Z,48.6670
2022-08-05T09:36:11.622Z,48.6730
2022-08-05T09:37:05.932Z,48.4100
2022-08-05T09:38:17.119Z,48.4610
2022-08-05T09:39:18.528Z,48.1170
2022-08-05T09:40:12.647Z,48.2430
2022-08-05T09:41:16.058Z,48.3740
2022-08-05T09:42:20.213Z,48.4890
2022-08-05T09:43:17.067Z,48.5810
2022-08-05T09:44:19.259Z,48.3280
2022-08-05T09:46:07.105Z,48.5260
2022-08-05T09:46:27.587Z,48.6160
2022-08-05T09:47:25.783Z,48.8650
2022-08-05T09:48:28.427Z,48.7960
2022-08-05T09:49:40.271Z,48.8340
2022-08-05T09:50:37.684Z,48.7830
2022-08-05T09:51:34.455Z,48.8920
2022-08-05T09:52:36.642Z,48.8650
2022-08-05T09:53:53.724Z,48.9410
2022-08-05T09:54:41.041Z,48.9450
2022-08-05T09:55:57.495Z,48.9510
2022-08-05T09:56:51.459Z,49.0310
2022-08-05T09:57:47.532Z,49.0490
2022-08-05T09:58:50.254Z,49.0200
2022-08-05T09:59:51.922Z,49.0140
2022-08-05T10:00:54.065Z,49.0100
2022-08-05T10:01:58.075Z,48.9990
2022-08-05T10:02:59.112Z,48.9990
2022-08-05T10:04:00.708Z,48.9800
2022-08-05T10:05:02.677Z,48.9900
2022-08-05T10:06:14.727Z,49.0210
2022-08-05T10:07:20.481Z,48.9990
2022-08-05T10:08:35.231Z,49.0830
2022-08-05T10:09:28.384Z,49.0560
2022-08-05T10:10:15.110Z,49.0700
2022-08-05T10:11:15.625Z,49.0130
2022-08-05T10:12:31.047Z,49.0090
2022-08-05T10:13:19.951Z,49.0560
2022-08-05T10:14:22.124Z,49.0130
2022-08-05T10:15:25.574Z,48.6190
2022-08-05T10:16:26.455Z,49.0500
2022-08-05T10:17:37.250Z,48.8350
2022-08-05T10:18:28.631Z,49.0250
2022-08-05T10:20:03.224Z,48.9780
2022-08-05T10:20:33.019Z,48.9860
2022-08-05T10:21:40.158Z,48.9780
2022-08-05T10:22:39.579Z,48.9920
2022-08-05T10:23:59.192Z,49.0310
2022-08-05T10:24:41.695Z,49.0440
2022-08-05T10:25:43.922Z,49.0190
2022-08-05T10:26:51.718Z,48.9780
2022-08-05T10:28:13.311Z,49.0090
2022-08-05T10:28:50.616Z,49.0150
2022-08-05T10:30:06.804Z,49.0150
2022-08-05T10:32:55.078Z,48.9920
2022-08-05T10:32:55.363Z,48.8350
2022-08-05T10:33:01.833Z,49.0370
2022-08-05T10:34:03.380Z,48.9270
2022-08-05T10:35:03.451Z,48.9270
2022-08-05T10:36:05.719Z,48.9230
2022-08-05T10:37:07.929Z,48.9110
2022-08-05T10:38:11.918Z,48.8860
2022-08-05T10:39:15.147Z,48.9170
2022-08-05T10:40:17.860Z,48.8980
2022-08-05T10:41:14.740Z,48.8740
2022-08-05T10:42:18.411Z,48.8980
2022-08-05T10:43:19.012Z,48.9430
2022-08-05T10:44:21.241Z,48.9370
2022-08-05T10:45:39.792Z,48.8880
2022-08-05T10:46:25.707Z,48.9290
2022-08-05T10:47:31.408Z,48.9030
2022-08-05T10:48:35.099Z,48.9030
2022-08-05T10:49:33.300Z,48.9620
2022-08-05T10:50:36.982Z,48.9740
2022-08-05T10:51:36.784Z,48.9970
2022-08-05T10:52:38.974Z,49.0150
2022-08-05T10:53:45.110Z,49.0300
2022-08-05T10:54:47.232Z,49.0360
2022-08-05T10:56:03.437Z,49.0480
2022-08-05T10:56:45.627Z,49.0790
2022-08-05T10:57:47.768Z,49.0210
2022-08-05T10:58:50.697Z,49.0380
2022-08-05T11:00:03.581Z,49.0300
2022-08-05T11:00:55.363Z,49.1110
2022-08-05T11:02:04.563Z,49.1170
2022-08-05T11:02:58.606Z,49.1420
2022-08-05T11:04:00.797Z,49.1420
2022-08-05T11:05:02.919Z,49.1010
2022-08-05T11:06:05.080Z,49.0660
2022-08-05T11:07:07.326Z,49.0790
2022-08-05T11:08:34.279Z,49.0770
2022-08-05T11:09:16.377Z,49.0990
2022-08-05T11:10:13.865Z,49.1110
2022-08-05T11:11:16.805Z,49.1010
2022-08-05T11:12:20.317Z,49.0870
2022-08-05T11:13:20.299Z,49.1100
2022-08-05T11:14:37.100Z,49.1020
2022-08-05T11:16:00.623Z,49.1450
2022-08-05T11:16:47.540Z,49.1790
2022-08-05T11:17:59.101Z,49.2160
2022-08-05T11:18:32.586Z,49.2160
2022-08-05T11:20:10.845Z,49.2220
2022-08-05T11:20:37.566Z,49.2330
2022-08-05T11:21:49.018Z,49.2570
2022-08-05T11:22:39.784Z,49.2920
2022-08-05T11:24:04.590Z,49.2860
2022-08-05T11:24:41.993Z,49.3020
2022-08-05T11:26:04.556Z,49.3060
2022-08-05T11:26:49.566Z,49.3210
2022-08-05T11:27:51.036Z,49.3090
2022-08-05T11:28:50.793Z,49.2960
2022-08-05T11:29:53.026Z,49.2740
2022-08-05T11:30:55.241Z,49.2550
2022-08-05T11:32:00.598Z,49.2800
2022-08-05T11:32:59.865Z,49.3070
2022-08-05T11:34:01.878Z,49.2920
2022-08-05T11:35:04.052Z,49.2940
2022-08-05T11:36:08.446Z,49.3070
2022-08-05T11:38:27.889Z,49.3070
2022-08-05T11:38:36.432Z,49.3640
2022-08-05T11:39:14.871Z,49.3820
2022-08-05T11:40:18.263Z,49.3760
2022-08-05T11:41:58.175Z,49.3700
2022-08-05T11:42:23.428Z,49.3950
2022-08-05T11:44:00.760Z,49.3890
2022-08-05T11:44:40.336Z,49.4270
2022-08-05T11:46:30.870Z,49.4400
2022-08-05T11:46:33.308Z,49.4580
2022-08-05T11:48:28.211Z,49.5160
2022-08-05T11:49:33.845Z,49.4770
2022-08-05T11:50:32.207Z,49.5280
2022-08-05T11:51:44.742Z,49.4580
2022-08-05T11:52:36.487Z,49.4850
2022-08-05T11:53:40.839Z,49.4690
2022-08-05T11:54:41.292Z,49.4850
2022-08-05T11:55:42.965Z,49.4930
2022-08-05T11:56:45.104Z,49.4690
2022-08-05T11:58:09.841Z,49.4930
2022-08-05T11:58:53.196Z,49.5410
2022-08-05T11:59:51.503Z,49.5490
2022-08-05T12:00:53.601Z,49.5200
2022-08-05T12:01:55.635Z,49.5280
2022-08-05T12:02:57.893Z,49.5160
2022-08-05T12:03:59.960Z,49.5160
2022-08-05T12:05:08.233Z,49.4910
2022-08-05T12:06:06.533Z,49.5290
2022-08-05T12:07:06.482Z,49.5350
2022-08-05T12:08:11.566Z,49.5430
2022-08-05T12:09:10.932Z,49.5670
2022-08-05T12:10:13.166Z,49.5860
2022-08-05T12:11:20.342Z,49.5670
2022-08-05T12:12:17.425Z,49.5740
2022-08-05T12:13:48.422Z,49.5450
2022-08-05T12:14:21.823Z,49.5920
2022-08-05T12:15:38.590Z,49.5780
2022-08-05T12:16:27.139Z,49.5900
2022-08-05T12:18:03.415Z,49.5840
2022-08-05T12:18:32.721Z,49.6030
2022-08-05T12:20:25.995Z,49.5840
2022-08-05T12:20:33.751Z,49.6150
2022-08-05T12:21:39.166Z,49.5960
2022-08-05T12:22:37.343Z,49.5960
2022-08-05T12:23:43.263Z,49.5940
2022-08-05T12:24:39.611Z,49.5800
2022-08-05T12:25:41.801Z,49.6010
2022-08-05T12:26:44.491Z,49.5800
2022-08-05T12:27:53.499Z,49.5430
2022-08-05T12:28:48.429Z,49.5940
2022-08-05T12:29:56.872Z,49.5800